SV2BBO-2 Thessaloniki GR current weather conditions

sailwx.info

Wind from 219 at 4 knots gusting 5

Air temperature 32.8° C
Dewpoint 5.3° C

Last reported at 2015-Aug-01 15:47 UTC.
Time now 2015-Aug-01 16:10 UTC

Location: N 40°38' E 022°57'.
View on Google Maps.

See reports from other nearby stations

  
Tides and Currents Weather Stations Pressure Air Temp Water Temp Dewpoint Dewpoint Depression Visibility Wind Speed Wind Dir Waves Ship Positions
date/time (UTC)wind fromknots sea level pressurealtimeterstation pressurevisibilityair tempwater tempwave heightnotes
2015-Aug-01 15:47 219 4 gusting 5 32.8
2015-Aug-01 15:37 186 4 gusting 6 32.8
2015-Aug-01 15:27 213 5 gusting 6 33.3
2015-Aug-01 15:17 201 3 gusting 6 33.3
2015-Aug-01 15:07 204 4 gusting 7 33.3
2015-Aug-01 14:57 200 5 gusting 8 33.3
2015-Aug-01 14:47 210 4 gusting 7 33.9
2015-Aug-01 14:37 189 4 gusting 7 33.9
2015-Aug-01 14:27 209 6 gusting 7 33.9
2015-Aug-01 14:17 223 7 gusting 7 33.9
2015-Aug-01 14:07 242 3 gusting 7 33.9
2015-Aug-01 13:57 213 6 gusting 10 33.9
2015-Aug-01 13:47 226 6 gusting 7 33.3
2015-Aug-01 13:37 188 4 gusting 6 32.8
2015-Aug-01 13:27 226 5 gusting 6 32.2
2015-Aug-01 13:17 255 2 gusting 4 31.7
2015-Aug-01 13:07 242 5 gusting 6 31.7
2015-Aug-01 12:57 199 2 gusting 4 32.2
2015-Aug-01 12:47 239 3 gusting 5 32.2
2015-Aug-01 12:37 256 4 gusting 6 32.2
2015-Aug-01 12:27 268 3 gusting 5 32.2
2015-Aug-01 12:17 209 4 gusting 5 32.8
2015-Aug-01 12:07 218 5 gusting 6 32.8
2015-Aug-01 11:57 238 5 gusting 8 32.8
2015-Aug-01 11:47 229 3 gusting 8 32.8
2015-Aug-01 11:37 233 3 gusting 6 32.8
2015-Aug-01 11:27 239 4 gusting 6 32.8
2015-Aug-01 11:17 222 5 gusting 8 32.8
2015-Aug-01 11:07 223 6 gusting 6 32.8
2015-Aug-01 10:57 227 3 gusting 5 33.3
2015-Aug-01 10:47 221 3 gusting 5 32.8
2015-Aug-01 10:37 225 4 gusting 5 32.8
2015-Aug-01 10:27 187 2 gusting 3 32.8
2015-Aug-01 10:17 218 3 gusting 2 32.8
2015-Aug-01 10:07 234 3 gusting 4 32.8
2015-Aug-01 09:57 231 33.3
2015-Aug-01 09:47 221 4 gusting 6 33.3
2015-Aug-01 09:37 237 5 gusting 5 33.9
2015-Aug-01 09:27 217 5 gusting 6 33.9
2015-Aug-01 09:17 200 4 gusting 6 33.3
2015-Aug-01 09:07 227 4 gusting 6 33.9
2015-Aug-01 08:57 192 4 gusting 6 33.9
2015-Aug-01 08:47 226 4 gusting 7 34.4
2015-Aug-01 08:37 229 4 gusting 5 33.9
2015-Aug-01 08:27 213 5 gusting 5 33.9
2015-Aug-01 08:17 277 5 gusting 4 34.4
2015-Aug-01 08:07 302 4 gusting 5 34.4
2015-Aug-01 07:57 285 3 gusting 5 33.9
2015-Aug-01 07:47 357 2 gusting 3 33.3
2015-Aug-01 07:37 353 3 gusting 5 33.3
2015-Aug-01 07:27 307 4 gusting 5 33.3
2015-Aug-01 07:17 295 3 gusting 6 32.8
2015-Aug-01 07:07 359 3 gusting 4 32.2
2015-Aug-01 06:57 355 3 gusting 3 32.2
2015-Aug-01 06:47 003 6 gusting 7 32.2
2015-Aug-01 06:37 005 3 gusting 5 32.2
2015-Aug-01 06:27 041 4 gusting 5 31.7
2015-Aug-01 06:17 062 5 gusting 4 31.1
2015-Aug-01 06:07 353 5 gusting 7 31.1
2015-Aug-01 05:57 012 5 gusting 6 30.6
2015-Aug-01 05:47 353 6 gusting 7 30.0
2015-Aug-01 05:37 016 6 gusting 6 29.4
2015-Aug-01 05:27 004 6 gusting 8 28.9
2015-Aug-01 05:17 351 4 gusting 6 28.9
2015-Aug-01 05:07 324 3 gusting 4 28.3
2015-Aug-01 04:57 030 2 gusting 3 28.3
2015-Aug-01 04:47 354 3 gusting 4 27.8
2015-Aug-01 04:37 340 4 gusting 6 27.8
2015-Aug-01 04:27 028 5 gusting 7 27.8
2015-Aug-01 04:17 034 4 gusting 4 27.8
2015-Aug-01 04:07 007 4 gusting 5 27.8
2015-Aug-01 03:57 340 6 gusting 7 27.8
2015-Aug-01 03:47 004 2 gusting 3 28.3
2015-Aug-01 03:37 216 2 gusting 3 28.3
2015-Aug-01 03:27 337 28.3
2015-Aug-01 03:17 003 2 gusting 3 28.3
2015-Aug-01 03:07 357 3 gusting 3 27.8
2015-Aug-01 02:57 359 5 gusting 4 27.8
2015-Aug-01 02:47 303 4 gusting 5 27.8
2015-Aug-01 02:37 327 4 gusting 5 28.3
2015-Aug-01 02:27 303 3 gusting 5 28.3
2015-Aug-01 02:17 312 3 gusting 4 28.9
2015-Aug-01 02:07 293 3 gusting 6 28.9
2015-Aug-01 01:57 352 3 gusting 4 28.9
2015-Aug-01 01:47 356 4 gusting 6 28.9
2015-Aug-01 01:37 304 3 gusting 6 28.9
2015-Aug-01 01:27 001 4 gusting 6 28.9
2015-Aug-01 01:17 355 3 gusting 4 28.9
2015-Aug-01 01:07 350 6 gusting 6 28.9
2015-Aug-01 00:57 026 5 gusting 6 28.9
2015-Aug-01 00:47 007 6 gusting 5 29.4
2015-Aug-01 00:37 358 6 gusting 6 29.4
2015-Aug-01 00:27 016 6 gusting 7 29.4
2015-Aug-01 00:17 025 6 gusting 7 29.4
2015-Aug-01 00:07 029 4 gusting 6 29.4
2015-Jul-31 23:57 008 6 gusting 6 29.4
2015-Jul-31 23:47 001 4 gusting 6 29.4
2015-Jul-31 23:37 011 6 gusting 6 29.4
2015-Jul-31 23:27 018 6 gusting 7 29.4
2015-Jul-31 23:17 008 6 gusting 7 29.4
2015-Jul-31 23:07 009 8 gusting 11 29.4
2015-Jul-31 22:57 034 6 gusting 11 28.9
2015-Jul-31 22:47 016 6 gusting 9 28.9
2015-Jul-31 22:37 016 6 gusting 6 28.9
2015-Jul-31 22:27 019 6 gusting 5 28.3
2015-Jul-31 22:17 028 6 gusting 8 28.9
2015-Jul-31 22:07 006 4 gusting 5 28.9
2015-Jul-31 21:57 009 5 gusting 8 28.9
2015-Jul-31 21:47 28.9
2015-Jul-31 21:37 027 0 gusting 3 28.9
2015-Jul-31 21:27 103 28.9
2015-Jul-31 21:17 098 29.4
2015-Jul-31 21:07 088 2 gusting 3 29.4
2015-Jul-31 20:57 036 29.4
2015-Jul-31 20:47 301 29.4
2015-Jul-31 20:37 319 2 gusting 4 29.4
2015-Jul-31 20:27 237 3 gusting 4 30.0
2015-Jul-31 20:17 303 1 gusting 3 30.0
2015-Jul-31 20:07 293 3 gusting 5 29.4
2015-Jul-31 19:57 317 3 gusting 6 30.0
2015-Jul-31 19:47 284 5 gusting 8 30.6
2015-Jul-31 19:37 314 3 gusting 5 30.6
2015-Jul-31 19:27 258 5 gusting 5 31.1
2015-Jul-31 19:17 272 2 gusting 3 31.1
2015-Jul-31 19:07 134 2 gusting 3 31.1
2015-Jul-31 18:57 229 3 gusting 5 30.6
2015-Jul-31 18:47 058 6 gusting 7 30.0
2015-Jul-31 18:37 086 11 gusting 14 30.0
2015-Jul-31 18:27 030 10 gusting 15 29.4
2015-Jul-31 18:17 061 10 gusting 11 29.4
2015-Jul-31 18:07 060 11 gusting 13 28.9
2015-Jul-31 17:57 081 12 gusting 15 28.3
2015-Jul-31 17:47 055 13 gusting 17 27.2
2015-Jul-31 17:37 015 11 gusting 15 28.3
2015-Jul-31 17:27 033 9 gusting 11 28.3
2015-Jul-31 17:17 025 12 gusting 15 28.9
2015-Jul-31 17:07 010 11 gusting 11 31.7
2015-Jul-31 16:57 036 10 gusting 16 32.8
2015-Jul-31 16:47 356 5 gusting 7 33.3
2015-Jul-31 16:37 279 3 gusting 5 33.9
2015-Jul-31 16:27 258 2 gusting 2 33.9
2015-Jul-31 16:17 250 3 gusting 5 33.9
2015-Jul-31 16:07 229 4 gusting 3 33.9
2015-Jul-31 15:57 251 4 gusting 4 33.9
2015-Jul-31 15:47 222 3 gusting 4 33.9
2015-Jul-31 15:37 222 4 gusting 5 34.4
2015-Jul-31 15:27 209 3 gusting 5 34.4
2015-Jul-31 15:17 222 5 gusting 6 34.4
2015-Jul-31 15:07 215 4 gusting 5 34.4
2015-Jul-31 14:57 246 3 gusting 5 35.0
2015-Jul-31 14:47 206 3 gusting 3 35.0
2015-Jul-31 14:37 231 3 gusting 4 35.0
2015-Jul-31 14:27 231 4 gusting 6 35.0
2015-Jul-31 14:17 265 2 gusting 3 35.0
2015-Jul-31 14:07 218 5 gusting 6 35.6
2015-Jul-31 13:57 237 2 gusting 4 35.6
2015-Jul-31 13:47 210 4 gusting 4 35.6
2015-Jul-31 13:37 204 2 gusting 3 35.6
2015-Jul-31 13:27 216 3 gusting 5 36.1
2015-Jul-31 13:17 210 5 gusting 5 36.1
2015-Jul-31 13:07 247 4 gusting 3 36.1
2015-Jul-31 12:57 209 4 gusting 6 36.1
2015-Jul-31 12:47 206 7 gusting 7 36.7
2015-Jul-31 12:37 210 5 gusting 7 35.6
2015-Jul-31 12:27 268 3 gusting 4 35.6
2015-Jul-31 12:17 266 3 gusting 4 35.6
2015-Jul-31 12:07 228 4 gusting 5 35.0
2015-Jul-31 11:57 235 4 gusting 5 35.0
2015-Jul-31 11:47 267 3 gusting 4 35.0
2015-Jul-31 11:37 224 5 gusting 4 35.6
2015-Jul-31 11:27 229 4 gusting 5 35.6
2015-Jul-31 11:17 210 4 gusting 5 35.6
2015-Jul-31 11:07 212 3 gusting 3 35.0
2015-Jul-31 10:57 221 5 gusting 6 35.0
2015-Jul-31 10:47 207 5 gusting 6 34.4
2015-Jul-31 10:37 246 3 gusting 5 34.4
2015-Jul-31 10:27 252 4 gusting 4 34.4
2015-Jul-31 10:17 230 4 gusting 5 34.4
2015-Jul-31 10:07 228 5 gusting 4 35.0
2015-Jul-31 09:57 216 5 gusting 6 35.0
2015-Jul-31 09:47 217 3 gusting 5 35.0
2015-Jul-31 09:37 171 4 gusting 6 35.6
2015-Jul-31 09:27 200 4 gusting 4 35.6
2015-Jul-31 09:17 199 5 gusting 6 35.0
2015-Jul-31 09:07 243 3 gusting 5 34.4
2015-Jul-31 08:57 272 4 gusting 4 34.4
2015-Jul-31 08:47 283 3 gusting 5 34.4
2015-Jul-31 08:37 286 3 gusting 6 34.4
2015-Jul-31 08:27 315 5 gusting 4 33.9
2015-Jul-31 08:17 352 3 gusting 3 33.9
2015-Jul-31 08:07 346 4 gusting 9 32.8
2015-Jul-31 07:57 027 4 gusting 6 31.7
2015-Jul-31 07:47 027 3 gusting 3 30.6
2015-Jul-31 07:37 357 3 gusting 5 30.0
2015-Jul-31 07:27 282 4 gusting 6 29.4
2015-Jul-31 07:17 247 5 gusting 6 30.6
2015-Jul-31 07:07 275 4 gusting 5 30.6
2015-Jul-31 06:57 209 2 gusting 3 30.6
2015-Jul-31 06:47 289 3 gusting 7 30.6
2015-Jul-31 06:37 028 3 gusting 3 30.0
2015-Jul-31 06:27 033 3 gusting 6 30.0
2015-Jul-31 06:17 003 5 gusting 6 29.4
2015-Jul-31 06:07 330 3 gusting 4 29.4
2015-Jul-31 05:57 265 2 gusting 2 29.4
2015-Jul-31 05:47 012 5 gusting 7 29.4
2015-Jul-31 05:37 298 3 gusting 5 29.4
2015-Jul-31 05:27 339 3 gusting 5 29.4
2015-Jul-31 05:17 279 5 gusting 10 29.4
2015-Jul-31 05:07 281 3 gusting 4 30.0
2015-Jul-31 04:57 351 4 gusting 4 30.0
2015-Jul-31 04:47 321 5 gusting 5 30.0
2015-Jul-31 04:37 288 3 gusting 4 30.0
2015-Jul-31 04:27 323 4 gusting 5 30.0
2015-Jul-31 04:17 315 4 gusting 6 30.0
2015-Jul-31 04:07 296 4 gusting 5 30.6
2015-Jul-31 03:57 293 3 gusting 5 30.6
2015-Jul-31 03:47 014 4 gusting 5 30.0
2015-Jul-31 03:37 287 3 gusting 4 30.6
2015-Jul-31 03:27 289 4 gusting 6 30.6
2015-Jul-31 03:17 275 2 gusting 2 30.6
2015-Jul-31 03:07 042 30.6
2015-Jul-31 02:57 053 3 gusting 4 30.0
2015-Jul-31 02:47 048 3 gusting 4 30.0
2015-Jul-31 02:37 104 30.0
2015-Jul-31 02:27 104 30.0
2015-Jul-31 02:17 104 30.0
2015-Jul-31 02:07 104 30.0
2015-Jul-31 01:57 104 30.0
2015-Jul-31 01:47 104 30.0
2015-Jul-31 01:37 104 30.0
2015-Jul-31 01:27 104 30.0
2015-Jul-31 01:17 104 30.6
2015-Jul-31 01:07 104 30.0
2015-Jul-31 00:57 104 30.0
2015-Jul-31 00:47 104 30.6
2015-Jul-31 00:37 104 30.6
2015-Jul-31 00:27 104 30.6
2015-Jul-31 00:17 104 2 gusting 2 30.6
2015-Jul-31 00:07 104 30.6
2015-Jul-30 23:57 127 31.1
2015-Jul-30 23:47 226 31.1
2015-Jul-30 23:37 146 2 gusting 2 31.1
2015-Jul-30 23:27 138 31.1
2015-Jul-30 23:17 138 31.1
2015-Jul-30 23:07 138 2 gusting 2 31.1
2015-Jul-30 22:47 138 31.7
2015-Jul-30 22:37 138 31.7
2015-Jul-30 22:27 138 31.7
2015-Jul-30 22:17 138 31.7
2015-Jul-30 22:07 138 31.7
2015-Jul-30 21:57 138 31.7
2015-Jul-30 21:47 138 31.7
2015-Jul-30 21:37 138 31.7
2015-Jul-30 21:27 138 32.2
2015-Jul-30 21:17 138 32.2
2015-Jul-30 21:07 138 32.2
2015-Jul-30 20:57 138 32.2
2015-Jul-30 20:47 138 32.2
2015-Jul-30 20:37 138 32.2
2015-Jul-30 20:27 140 32.2
2015-Jul-30 20:17 140 1 32.2
2015-Jul-30 20:07 140 2 gusting 2 32.2
2015-Jul-30 19:57 326 32.2
2015-Jul-30 19:47 325 32.2
2015-Jul-30 19:37 335 32.8
2015-Jul-30 19:27 340 1 gusting 2 32.8
2015-Jul-30 19:17 341 32.8
2015-Jul-30 19:07 338 32.8
2015-Jul-30 18:57 334 32.8
2015-Jul-30 18:47 316 32.8
2015-Jul-30 18:37 316 1 gusting 3 32.8
2015-Jul-30 18:27 291 32.8
2015-Jul-30 18:17 290 0 gusting 3 32.8
2015-Jul-30 18:07 286 32.8
2015-Jul-30 17:57 284 2 32.8
2015-Jul-30 17:47 275 2 gusting 3 32.8
2015-Jul-30 17:37 267 33.3
2015-Jul-30 17:27 266 2 gusting 3 33.3
2015-Jul-30 17:17 251 2 gusting 3 33.3
2015-Jul-30 17:07 291 3 gusting 3 33.3
2015-Jul-30 16:57 209 2 gusting 3 33.3
2015-Jul-30 16:47 257 33.3
2015-Jul-30 16:37 249 33.3
2015-Jul-30 16:27 253 2 gusting 4 33.3
2015-Jul-30 16:17 313 2 gusting 3 33.3
2015-Jul-30 16:07 226 2 gusting 3 33.9